Meath Environmental Platform

Observations for Trim Patrick St

Time AQI Temp °C Hum % Pres Pa CO μg/m³ H₂S μg/m³ NO μg/m³ NO₂ μg/m³ O₃ μg/m³ SO₂ μg/m³ PM1 μg/m³ PM2.5 μg/m³ PM10 μg/m³
Saturday 8 August 2026
21:27 3 22 58 72,943 0 26.89 1.14 53.33 32.44 9.63 4.57 8.89 9.78
21:26 3 22.1 58 72,803 0 28.56 1.13 64.47 37.41 10.01 2 6.65 7.31
21:25 3 22.1 57 72,656 0 25.44 1.16 66.65 25.88 9.29 2.86 7.47 8.22
21:24 3 22.1 56 72,515 0 23.41 1.18 53.94 30.97 9.55 2.86 8.27 9.1
21:23 3 22.2 56 72,430 0 23.8 1.16 51.04 31.91 9.99 2.86 7.52 8.28
21:22 3 22.2 58 72,404 0 25.63 1.12 45.8 37.08 10.34 2.86 8.18 9
21:21 3 22.3 57 72,308 0 28.8 1.11 64.17 33.17 10.49 2.86 6.7 7.37
21:20 3 22.3 57 72,123 0 27.05 1.12 63.87 26.84 9.93 2.86 6.72 7.39
21:19 3 22.4 57 71,996 0 27.74 1.11 51.48 43.7 11.11 3.71 8.22 9.04
21:18 3 22.4 56 71,890 0 26.47 1.15 62.11 29.18 10.3 2.86 6.81 7.49
21:17 3 22.5 55 71,810 0 27.19 1.15 49.85 37.14 10.61 2.86 6.86 7.55
21:16 3 22.5 55 71,762 0 27.77 1.15 61 37.27 10.55 2.86 7.62 8.39
21:15 3 22.5 55 71,674 0 27.24 1.15 53.71 34.21 10.85 2.86 6.88 7.56
21:13 3 22.7 56 71,577 0 28.96 1.09 63.99 37.87 10.89 3.71 8.28 9.11
21:12 3 22.7 55 71,454 0 28.85 1.12 63.57 33.73 10.8 2.86 7.6 8.36
21:11 3 22.7 56 71,354 0 28.85 1.11 42 41.6 11.97 2.86 7.57 8.33
21:10 3 22.8 54 71,307 0 31.69 1.14 69.84 29.24 11.1 3.71 7.65 8.42
21:09 3 22.9 55 71,159 0 31.47 1.11 78.04 30.74 11.45 3.71 8.36 9.2
21:08 3 22.9 55 70,993 0 28.19 1.11 43.58 42.32 11.58 3.71 8.38 9.21
21:07 3 23 54 70,983 0 30.28 1.11 63.96 38.27 11.95 3.71 8.42 9.26